Time;durP1;ratioP1;P1;durP2;ratioP2;P2;SDS_P1;SDS_P2;PMS_P1;PMS_P2;Temp;Humidity;BMP_temperature;BMP_pressure;BME280_temperature;BME280_humidity;BME280_pressure;Samples;Min_cycle;Max_cycle;Signal;HPM_P1;HPM_P2
2021/12/16 00:07:31;;;;;;;81.63;48.80;;;;;;;;;;6253777;28;20556;-67
2021/12/16 00:10:38;;;;;;;174.25;83.82;;;;;;;;;;6258304;28;20052;-68
2021/12/16 00:31:03;;;;;;;60.70;39.85;;;;;;;;;;6255205;28;20655;-65
2021/12/16 00:34:06;;;;;;;63.08;41.00;;;;;;;;;;6260288;28;20124;-65
2021/12/16 00:37:08;;;;;;;62.00;40.15;;;;;;;;;;6253626;28;20049;-65
2021/12/16 00:40:13;;;;;;;64.53;41.53;;;;;;;;;;6260496;28;20175;-65
2021/12/16 00:43:20;;;;;;;64.40;39.63;;;;;;;;;;6269166;28;20076;-65
2021/12/16 00:46:55;;;;;;;58.97;38.95;;;;;;;;;;6253386;28;20048;-65
2021/12/16 00:50:06;;;;;;;61.55;39.50;;;;;;;;;;6273070;28;20416;-65
2021/12/16 00:56:28;;;;;;;60.70;40.45;;;;;;;;;;6254565;28;20493;-66
2021/12/16 00:59:34;;;;;;;65.18;40.72;;;;;;;;;;6271353;28;20045;-65
2021/12/16 01:36:32;;;;;;;62.88;40.92;;;;;;;;;;6234577;28;20514;-66
2021/12/16 01:40:02;;;;;;;60.70;38.25;;;;;;;;;;6248899;28;20052;-66
2021/12/16 01:46:45;;;;;;;63.30;39.50;;;;;;;;;;6236575;28;20124;-65
2021/12/16 01:49:54;;;;;;;62.80;39.50;;;;;;;;;;6262267;28;20385;-66
2021/12/16 01:53:14;;;;;;;63.15;39.85;;;;;;;;;;6248372;28;20056;-66
2021/12/16 01:56:27;;;;;;;62.88;39.92;;;;;;;;;;6245553;28;20125;-65
2021/12/16 01:59:34;;;;;;;62.97;38.78;;;;;;;;;;6265343;28;20040;-66
2021/12/16 02:02:42;;;;;;;61.33;39.03;;;;;;;;;;6240640;28;20261;-65
2021/12/16 02:06:06;;;;;;;63.42;40.25;;;;;;;;;;6241334;28;20045;-66
2021/12/16 02:09:17;;;;;;;62.60;39.38;;;;;;;;;;6255258;28;20046;-65
2021/12/16 02:12:42;;;;;;;68.03;40.65;;;;;;;;;;6241742;28;20085;-65
2021/12/16 02:29:14;;;;;;;65.93;41.92;;;;;;;;;;6245860;28;20417;-65
2021/12/16 02:32:33;;;;;;;64.45;41.78;;;;;;;;;;6220402;28;20061;-65
2021/12/16 02:35:42;;;;;;;70.22;42.83;;;;;;;;;;6219465;28;20136;-65
2021/12/16 02:38:47;;;;;;;76.63;45.88;;;;;;;;;;6231722;28;20065;-65
2021/12/16 02:41:52;;;;;;;81.18;48.10;;;;;;;;;;6218374;28;20590;-65
2021/12/16 02:48:33;;;;;;;77.32;46.97;;;;;;;;;;6202234;28;20080;-65
2021/12/16 02:51:35;;;;;;;72.38;46.05;;;;;;;;;;6196899;28;20470;-65
2021/12/16 02:54:38;;;;;;;75.47;47.78;;;;;;;;;;6234119;28;20132;-65
2021/12/16 02:57:47;;;;;;;79.10;48.70;;;;;;;;;;6227345;28;20576;-65
2021/12/16 03:00:52;;;;;;;79.90;48.25;;;;;;;;;;6225016;28;20051;-65
2021/12/16 03:03:54;;;;;;;82.95;49.08;;;;;;;;;;6231616;28;20123;-65
2021/12/16 03:06:58;;;;;;;76.15;49.42;;;;;;;;;;6219689;28;20140;-65
2021/12/16 03:10:35;;;;;;;85.30;51.92;;;;;;;;;;6235882;28;20056;-66
2021/12/16 03:13:37;;;;;;;85.40;51.33;;;;;;;;;;6229827;28;20508;-65
2021/12/16 03:16:50;;;;;;;84.07;51.97;;;;;;;;;;6218358;28;20054;-65
2021/12/16 03:20:01;;;;;;;87.93;53.08;;;;;;;;;;6226834;28;20045;-66
2021/12/16 03:23:19;;;;;;;95.80;53.88;;;;;;;;;;6220053;28;20136;-65
2021/12/16 03:36:30;;;;;;;98.88;56.22;;;;;;;;;;6221203;28;20041;-65
2021/12/16 03:39:33;;;;;;;93.55;55.67;;;;;;;;;;6228243;28;20049;-65
2021/12/16 03:42:38;;;;;;;85.88;53.40;;;;;;;;;;6223020;28;20137;-65
2021/12/16 03:49:09;;;;;;;98.80;56.15;;;;;;;;;;6227915;28;20038;-64
2021/12/16 03:52:11;;;;;;;92.20;55.60;;;;;;;;;;6217570;28;20153;-63
2021/12/16 03:55:13;;;;;;;86.40;53.88;;;;;;;;;;6229669;28;20049;-64
2021/12/16 03:58:17;;;;;;;88.50;52.25;;;;;;;;;;6231452;28;20107;-64
2021/12/16 04:01:22;;;;;;;85.88;51.88;;;;;;;;;;6216404;28;20838;-65
2021/12/16 04:04:24;;;;;;;78.93;49.40;;;;;;;;;;6233122;28;20242;-64
2021/12/16 04:07:30;;;;;;;77.18;47.90;;;;;;;;;;6222470;28;20110;-65
2021/12/16 04:10:37;;;;;;;81.80;47.00;;;;;;;;;;6219683;28;21001;-65
2021/12/16 04:13:53;;;;;;;72.63;44.92;;;;;;;;;;6223408;28;20052;-65
2021/12/16 04:16:57;;;;;;;74.93;45.47;;;;;;;;;;6212603;28;20045;-65
2021/12/16 04:20:00;;;;;;;83.07;45.33;;;;;;;;;;6232244;28;20052;-64
2021/12/16 04:23:05;;;;;;;75.70;43.07;;;;;;;;;;6226886;28;20102;-65
2021/12/16 04:26:07;;;;;;;68.57;39.55;;;;;;;;;;6221137;28;20069;-65
2021/12/16 04:29:10;;;;;;;72.38;43.30;;;;;;;;;;6226715;28;20053;-64
2021/12/16 04:32:12;;;;;;;65.72;40.95;;;;;;;;;;6211862;28;20601;-65
2021/12/16 04:35:15;;;;;;;73.65;41.22;;;;;;;;;;6220867;28;20038;-65
2021/12/16 04:38:17;;;;;;;68.75;40.25;;;;;;;;;;6232884;28;20128;-65
2021/12/16 04:41:20;;;;;;;63.42;38.53;;;;;;;;;;6213755;28;20045;-65
2021/12/16 04:44:25;;;;;;;66.78;39.35;;;;;;;;;;6233703;28;21581;-65
2021/12/16 04:47:29;;;;;;;67.57;39.70;;;;;;;;;;6208273;28;20203;-65
2021/12/16 04:50:31;;;;;;;65.43;41.15;;;;;;;;;;6215541;28;20123;-65
2021/12/16 04:53:33;;;;;;;63.33;38.90;;;;;;;;;;6227476;28;20056;-65
2021/12/16 04:56:36;;;;;;;65.80;38.92;;;;;;;;;;6218637;28;20049;-65
2021/12/16 04:59:40;;;;;;;64.35;39.60;;;;;;;;;;6243213;28;20062;-65
2021/12/16 05:02:42;;;;;;;66.35;40.17;;;;;;;;;;6213642;28;20050;-64
2021/12/16 05:05:44;;;;;;;62.67;38.65;;;;;;;;;;6221213;28;20038;-65
2021/12/16 05:08:45;;;;;;;66.25;39.47;;;;;;;;;;6234146;28;20133;-65
2021/12/16 05:11:47;;;;;;;62.63;37.50;;;;;;;;;;6223546;28;21200;-65
2021/12/16 05:14:50;;;;;;;59.83;37.65;;;;;;;;;;6242043;28;20134;-65
2021/12/16 05:17:54;;;;;;;61.40;35.55;;;;;;;;;;6212495;28;20163;-65
2021/12/16 05:20:56;;;;;;;70.07;37.22;;;;;;;;;;6213972;28;20054;-65
2021/12/16 05:24:25;;;;;;;59.55;36.70;;;;;;;;;;6226499;28;20627;-66
2021/12/16 05:27:27;;;;;;;64.18;37.13;;;;;;;;;;6213805;28;20104;-65
2021/12/16 05:30:30;;;;;;;59.13;36.83;;;;;;;;;;6226061;28;20074;-65
2021/12/16 05:33:32;;;;;;;63.20;37.80;;;;;;;;;;6225732;28;20120;-65
2021/12/16 05:36:33;;;;;;;64.35;36.80;;;;;;;;;;6224894;28;20593;-65
2021/12/16 05:39:35;;;;;;;63.20;38.67;;;;;;;;;;6232199;28;20172;-65
2021/12/16 05:42:38;;;;;;;56.63;36.70;;;;;;;;;;6232933;28;20516;-64
2021/12/16 05:45:42;;;;;;;64.85;37.45;;;;;;;;;;6218113;28;20078;-64
2021/12/16 05:48:44;;;;;;;;;;;;;;;;;;6230400;28;20174;-65
2021/12/16 05:51:48;;;;;;;60.85;36.63;;;;;;;;;;6217872;28;19982;-64
2021/12/16 05:54:50;;;;;;;56.92;35.90;;;;;;;;;;6231679;28;20095;-64
2021/12/16 05:57:52;;;;;;;60.72;36.78;;;;;;;;;;6219731;28;20056;-65
2021/12/16 06:00:57;;;;;;;63.00;38.58;;;;;;;;;;6223407;28;20110;-65
2021/12/16 06:04:00;;;;;;;58.50;36.50;;;;;;;;;;6225966;28;20063;-65
2021/12/16 06:07:01;;;;;;;60.95;37.30;;;;;;;;;;6219140;28;20054;-65
2021/12/16 06:10:04;;;;;;;64.47;36.70;;;;;;;;;;6229441;28;20085;-65
2021/12/16 06:13:06;;;;;;;57.80;38.33;;;;;;;;;;6223197;28;20046;-65
2021/12/16 06:26:24;;;;;;;64.45;38.17;;;;;;;;;;6221947;28;20088;-65
2021/12/16 06:26:29;;;;;;;66.28;40.60;;;;;;;;;;6226691;28;20053;-65
2021/12/16 06:29:31;;;;;;;63.53;38.85;;;;;;;;;;6238143;28;20087;-65
2021/12/16 06:32:34;;;;;;;63.47;39.25;;;;;;;;;;6220589;28;20053;-65
2021/12/16 06:35:36;;;;;;;64.53;40.20;;;;;;;;;;6221047;28;20141;-65
2021/12/16 06:38:38;;;;;;;71.93;42.60;;;;;;;;;;6234306;28;20065;-65
2021/12/16 06:41:39;;;;;;;69.35;43.42;;;;;;;;;;6230673;28;20042;-65
2021/12/16 06:44:45;;;;;;;68.95;41.33;;;;;;;;;;6236464;28;21613;-64
2021/12/16 06:47:53;;;;;;;74.85;42.97;;;;;;;;;;6224498;28;21777;-65
2021/12/16 06:50:59;;;;;;;77.05;44.22;;;;;;;;;;6226003;28;20490;-65
2021/12/16 06:54:05;;;;;;;70.63;43.22;;;;;;;;;;6236086;28;20046;-64
2021/12/16 06:57:19;;;;;;;67.03;41.58;;;;;;;;;;6237228;28;20048;-65
2021/12/16 07:00:31;;;;;;;65.15;40.20;;;;;;;;;;6227998;28;20057;-64
2021/12/16 07:03:45;;;;;;;65.65;38.58;;;;;;;;;;6232422;28;20049;-65
2021/12/16 07:06:46;;;;;;;57.63;37.47;;;;;;;;;;6212967;28;20080;-65
2021/12/16 07:09:48;;;;;;;63.45;37.85;;;;;;;;;;6228739;28;20575;-65
2021/12/16 07:12:50;;;;;;;59.30;36.97;;;;;;;;;;6215991;28;20034;-65
2021/12/16 07:15:52;;;;;;;63.75;37.70;;;;;;;;;;6214765;28;20351;-65
2021/12/16 07:18:56;;;;;;;64.13;38.72;;;;;;;;;;6224368;28;20685;-65
2021/12/16 07:21:57;;;;;;;54.00;36.47;;;;;;;;;;6217909;28;20096;-65
2021/12/16 07:24:59;;;;;;;57.10;36.55;;;;;;;;;;6225650;28;20045;-64
2021/12/16 07:28:04;;;;;;;58.53;38.38;;;;;;;;;;6222012;28;20053;-64
2021/12/16 07:31:05;;;;;;;60.70;37.15;;;;;;;;;;6210680;28;20386;-65
2021/12/16 07:34:10;;;;;;;57.35;36.53;;;;;;;;;;6229267;28;20103;-65
2021/12/16 07:37:11;;;;;;;61.35;37.13;;;;;;;;;;6217414;28;20548;-65
2021/12/16 07:40:16;;;;;;;55.42;36.22;;;;;;;;;;6221726;28;20081;-65
2021/12/16 07:43:26;;;;;;;;;;;;;;;;;;6225861;28;20111;-65
2021/12/16 07:46:28;;;;;;;54.05;34.03;;;;;;;;;;6213159;28;19932;-65
2021/12/16 07:49:34;;;;;;;54.60;36.40;;;;;;;;;;6225630;28;20049;-65
2021/12/16 07:52:36;;;;;;;57.75;36.15;;;;;;;;;;6215270;28;20468;-65
2021/12/16 07:55:41;;;;;;;61.35;35.83;;;;;;;;;;6221144;28;20054;-65
2021/12/16 07:58:42;;;;;;;54.65;34.38;;;;;;;;;;6231401;28;20058;-66
2021/12/16 08:01:45;;;;;;;54.85;33.00;;;;;;;;;;6214864;28;20129;-65
2021/12/16 08:04:51;;;;;;;46.25;30.45;;;;;;;;;;6223998;28;20057;-64
2021/12/16 08:07:53;;;;;;;52.40;30.77;;;;;;;;;;6212730;28;20480;-65
2021/12/16 08:10:55;;;;;;;50.88;30.50;;;;;;;;;;6216356;28;20049;-65
2021/12/16 08:13:57;;;;;;;47.00;30.67;;;;;;;;;;6227125;28;20128;-65
2021/12/16 08:16:59;;;;;;;49.28;31.10;;;;;;;;;;6210968;28;20050;-65
2021/12/16 08:20:04;;;;;;;48.63;31.65;;;;;;;;;;6223007;28;20053;-65
2021/12/16 08:23:06;;;;;;;46.85;31.45;;;;;;;;;;6216785;28;20061;-65
2021/12/16 08:26:07;;;;;;;42.40;29.50;;;;;;;;;;6218443;28;20507;-65
2021/12/16 08:29:09;;;;;;;47.30;31.27;;;;;;;;;;6232457;28;20088;-65
2021/12/16 08:32:11;;;;;;;50.67;31.80;;;;;;;;;;6207559;28;20049;-66
2021/12/16 08:35:14;;;;;;;50.70;31.08;;;;;;;;;;6220459;28;20089;-65
2021/12/16 08:38:22;;;;;;;48.55;30.67;;;;;;;;;;6222618;28;20038;-65
2021/12/16 08:41:27;;;;;;;48.65;31.38;;;;;;;;;;6211609;28;20136;-65
2021/12/16 08:44:29;;;;;;;41.28;29.50;;;;;;;;;;6224973;28;20044;-65
2021/12/16 08:47:31;;;;;;;45.45;29.42;;;;;;;;;;6206947;28;20131;-65
2021/12/16 08:50:36;;;;;;;49.95;32.08;;;;;;;;;;6211109;28;20108;-65
2021/12/16 08:53:38;;;;;;;51.72;32.35;;;;;;;;;;6221465;28;20060;-65
2021/12/16 08:56:40;;;;;;;44.33;31.33;;;;;;;;;;6211277;28;20128;-65
2021/12/16 08:59:43;;;;;;;46.47;31.05;;;;;;;;;;6226715;28;20548;-65
2021/12/16 09:02:44;;;;;;;45.20;30.88;;;;;;;;;;6205980;28;20050;-65
2021/12/16 09:05:47;;;;;;;43.85;29.60;;;;;;;;;;6212100;28;20514;-65
2021/12/16 09:08:49;;;;;;;40.67;27.38;;;;;;;;;;6224570;28;20141;-65
2021/12/16 09:12:06;;;;;;;39.78;28.48;;;;;;;;;;6216899;28;21064;-65
2021/12/16 09:15:09;;;;;;;42.42;30.20;;;;;;;;;;6222191;28;20054;-65
2021/12/16 09:18:12;;;;;;;42.22;27.42;;;;;;;;;;6214758;28;20049;-65
2021/12/16 09:21:18;;;;;;;46.80;33.92;;;;;;;;;;6212247;28;20190;-65
2021/12/16 09:24:19;;;;;;;50.33;33.85;;;;;;;;;;6221713;28;20135;-65
2021/12/16 09:27:21;;;;;;;46.28;34.33;;;;;;;;;;6213414;28;20132;-65
2021/12/16 09:30:25;;;;;;;45.97;33.70;;;;;;;;;;6215040;28;20176;-65
2021/12/16 09:33:28;;;;;;;49.28;32.53;;;;;;;;;;6219928;28;20421;-65
2021/12/16 09:36:32;;;;;;;46.65;35.08;;;;;;;;;;6220874;28;20125;-65
2021/12/16 09:39:36;;;;;;;45.20;33.50;;;;;;;;;;6228921;28;20057;-65
2021/12/16 09:42:38;;;;;;;45.85;34.20;;;;;;;;;;6220172;28;20083;-65
2021/12/16 09:45:39;;;;;;;44.50;33.95;;;;;;;;;;6218127;28;20192;-65
2021/12/16 09:48:42;;;;;;;50.83;35.03;;;;;;;;;;6222673;28;20526;-65
2021/12/16 09:51:46;;;;;;;46.90;32.17;;;;;;;;;;6221850;28;20054;-65
2021/12/16 09:54:47;;;;;;;44.65;32.95;;;;;;;;;;6232315;28;20057;-65
2021/12/16 09:57:49;;;;;;;44.22;33.83;;;;;;;;;;6224677;28;20148;-65
2021/12/16 10:00:51;;;;;;;46.88;34.25;;;;;;;;;;6219544;28;20053;-65
2021/12/16 10:03:56;;;;;;;50.20;34.63;;;;;;;;;;6238058;28;20132;-65
2021/12/16 10:07:01;;;;;;;52.08;36.85;;;;;;;;;;6218026;28;20053;-65
2021/12/16 10:10:06;;;;;;;52.28;37.00;;;;;;;;;;6233096;28;20275;-65
2021/12/16 10:13:08;;;;;;;58.60;38.08;;;;;;;;;;6230262;28;20083;-65
2021/12/16 10:19:32;;;;;;;53.42;38.83;;;;;;;;;;6238482;28;20465;-65
2021/12/16 10:22:39;;;;;;;58.03;39.65;;;;;;;;;;6234502;28;20312;-65
2021/12/16 10:25:43;;;;;;;64.90;40.33;;;;;;;;;;6236160;28;20143;-66
2021/12/16 10:28:47;;;;;;;55.90;39.70;;;;;;;;;;6241520;28;20484;-65
2021/12/16 10:31:48;;;;;;;63.38;40.40;;;;;;;;;;6217643;28;20049;-66
2021/12/16 10:34:57;;;;;;;61.38;39.55;;;;;;;;;;6243925;28;20182;-65
2021/12/16 10:38:03;;;;;;;64.80;39.28;;;;;;;;;;6249383;28;20056;-65
2021/12/16 10:41:06;;;;;;;65.30;39.97;;;;;;;;;;6233014;28;20541;-66
2021/12/16 10:44:12;;;;;;;58.97;39.25;;;;;;;;;;6247610;28;20056;-65
2021/12/16 10:47:16;;;;;;;61.28;39.13;;;;;;;;;;6230477;28;20514;-66
2021/12/16 10:50:17;;;;;;;63.25;38.47;;;;;;;;;;6227400;28;20140;-66
2021/12/16 10:53:46;;;;;;;60.85;38.40;;;;;;;;;;6238937;28;20042;-66
2021/12/16 10:56:53;;;;;;;63.38;37.72;;;;;;;;;;6222139;28;20076;-66
2021/12/16 10:59:57;;;;;;;61.63;40.40;;;;;;;;;;6229711;28;20085;-65
2021/12/16 11:02:59;;;;;;;54.55;37.95;;;;;;;;;;6206058;28;20152;-66
2021/12/16 11:06:26;;;;;;;72.00;40.40;;;;;;;;;;6215386;28;20073;-66
2021/12/16 11:09:36;;;;;;;60.85;38.55;;;;;;;;;;6225430;28;20128;-65
2021/12/16 11:12:41;;;;;;;61.33;40.63;;;;;;;;;;6222916;28;20078;-65
2021/12/16 11:15:45;;;;;;;59.55;41.50;;;;;;;;;;6215627;28;20107;-66
2021/12/16 11:18:46;;;;;;;66.30;40.63;;;;;;;;;;6226131;28;20049;-65
2021/12/16 11:21:48;;;;;;;69.65;42.75;;;;;;;;;;6218905;28;20132;-66
2021/12/16 11:24:52;;;;;;;70.63;41.60;;;;;;;;;;6228740;28;20045;-66
2021/12/16 11:27:56;;;;;;;67.40;41.38;;;;;;;;;;6221677;28;20041;-66
2021/12/16 11:31:00;;;;;;;70.15;40.42;;;;;;;;;;6215663;28;20098;-65
2021/12/16 11:34:05;;;;;;;63.67;39.47;;;;;;;;;;6221030;28;20042;-65
2021/12/16 11:37:06;;;;;;;72.95;42.78;;;;;;;;;;6215939;28;20045;-66
2021/12/16 11:40:10;;;;;;;65.20;41.22;;;;;;;;;;6224631;28;20050;-65
2021/12/16 11:43:11;;;;;;;65.25;39.35;;;;;;;;;;6227081;28;20050;-65
2021/12/16 11:46:18;;;;;;;69.30;40.72;;;;;;;;;;6215079;28;20042;-66
2021/12/16 11:49:26;;;;;;;64.20;41.13;;;;;;;;;;6220678;28;20104;-65
2021/12/16 11:52:30;;;;;;;70.07;42.53;;;;;;;;;;6210824;28;20124;-65
2021/12/16 11:55:36;;;;;;;73.78;42.70;;;;;;;;;;6217381;28;20142;-65
2021/12/16 11:58:37;;;;;;;63.72;41.78;;;;;;;;;;6225036;28;20186;-65
2021/12/16 12:01:40;;;;;;;65.75;40.08;;;;;;;;;;6218780;28;20120;-65
2021/12/16 12:04:42;;;;;;;65.50;42.42;;;;;;;;;;6220974;28;20045;-66
2021/12/16 12:07:45;;;;;;;65.85;42.50;;;;;;;;;;6221065;28;20046;-66
2021/12/16 12:10:50;;;;;;;64.88;43.00;;;;;;;;;;6216634;28;20567;-66
2021/12/16 12:13:56;;;;;;;70.63;41.95;;;;;;;;;;6223861;28;20517;-66
2021/12/16 12:17:04;;;;;;;71.57;43.78;;;;;;;;;;6211957;28;20713;-66
2021/12/16 12:20:07;;;;;;;70.00;41.60;;;;;;;;;;6221197;28;20050;-66
2021/12/16 12:23:08;;;;;;;78.13;46.17;;;;;;;;;;6223813;28;20128;-65
2021/12/16 12:26:16;;;;;;;74.82;44.70;;;;;;;;;;6216399;28;20125;-66
2021/12/16 12:29:21;;;;;;;91.60;57.90;;;;;;;;;;6224898;28;20202;-68
2021/12/16 12:32:25;;;;;;;78.50;47.97;;;;;;;;;;6213955;28;20397;-68
2021/12/16 12:35:29;;;;;;;79.70;44.88;;;;;;;;;;6232195;28;20099;-67
2021/12/16 12:38:31;;;;;;;84.32;48.65;;;;;;;;;;6242583;28;20373;-67
2021/12/16 12:41:34;;;;;;;64.75;41.22;;;;;;;;;;6234642;28;20118;-66
2021/12/16 12:44:36;;;;;;;65.13;41.75;;;;;;;;;;6242601;28;20045;-66
2021/12/16 12:47:42;;;;;;;64.70;40.83;;;;;;;;;;6215611;28;20098;-66
2021/12/16 12:50:46;;;;;;;64.53;38.63;;;;;;;;;;6224791;28;20477;-66
2021/12/16 12:53:51;;;;;;;64.47;40.28;;;;;;;;;;6245066;28;20512;-65
2021/12/16 12:56:56;;;;;;;62.03;41.15;;;;;;;;;;6241540;28;20084;-66
2021/12/16 12:59:59;;;;;;;66.75;40.45;;;;;;;;;;6245624;28;20052;-66
2021/12/16 13:03:03;;;;;;;74.05;42.22;;;;;;;;;;6217338;28;20129;-66
2021/12/16 13:06:08;;;;;;;66.57;40.33;;;;;;;;;;6223351;28;20053;-66
2021/12/16 13:09:24;;;;;;;67.35;40.28;;;;;;;;;;6243733;28;20041;-65
2021/12/16 13:12:35;;;;;;;69.65;41.72;;;;;;;;;;6225575;28;20144;-66
2021/12/16 13:15:48;;;;;;;66.47;39.33;;;;;;;;;;6223800;28;20048;-66
2021/12/16 13:26:10;;;;;;;70.20;40.53;;;;;;;;;;6229055;28;20045;-66
2021/12/16 13:29:28;;;;;;;66.40;39.28;;;;;;;;;;6245533;28;20045;-66
2021/12/16 13:32:40;;;;;;;71.40;40.17;;;;;;;;;;6220768;28;20398;-66
2021/12/16 13:35:47;;;;;;;66.72;39.25;;;;;;;;;;6227811;28;20041;-65
2021/12/16 13:38:50;;;;;;;65.82;40.45;;;;;;;;;;6238276;28;20050;-66
2021/12/16 13:42:01;;;;;;;64.90;38.65;;;;;;;;;;6232343;28;20053;-65
2021/12/16 13:45:12;;;;;;;65.65;39.95;;;;;;;;;;6243680;28;20045;-66
2021/12/16 13:48:35;;;;;;;74.10;39.45;;;;;;;;;;6225462;28;20504;-66
2021/12/16 13:58:46;;;;;;;75.95;41.08;;;;;;;;;;6233544;28;20531;-66
2021/12/16 14:01:57;;;;;;;76.93;41.95;;;;;;;;;;6221248;28;20425;-66
2021/12/16 14:05:05;;;;;;;77.32;42.33;;;;;;;;;;6234994;28;20481;-66
2021/12/16 14:08:08;;;;;;;76.40;41.30;;;;;;;;;;6229360;28;20162;-66
2021/12/16 14:14:54;;;;;;;75.60;40.30;;;;;;;;;;6241415;28;20401;-66
2021/12/16 14:18:03;;;;;;;66.70;37.47;;;;;;;;;;6225852;28;20055;-66
2021/12/16 14:24:53;;;;;;;72.45;37.88;;;;;;;;;;6241618;28;20050;-66
2021/12/16 14:34:59;;;;;;;65.13;36.78;;;;;;;;;;6236219;28;20052;-66
2021/12/16 14:38:09;;;;;;;67.57;36.17;;;;;;;;;;6228136;28;20053;-66
2021/12/16 14:41:25;;;;;;;59.88;34.38;;;;;;;;;;6229380;28;20056;-66
2021/12/16 14:51:15;;;;;;;61.60;35.10;;;;;;;;;;6230308;28;20153;-66
2021/12/16 14:54:17;;;;;;;52.88;33.45;;;;;;;;;;6239450;28;20057;-66
2021/12/16 14:57:24;;;;;;;57.55;34.13;;;;;;;;;;6227085;28;20053;-66
2021/12/16 15:00:30;;;;;;;62.22;35.00;;;;;;;;;;6232095;28;20038;-66
2021/12/16 15:03:37;;;;;;;59.75;33.58;;;;;;;;;;6235358;28;20057;-66
2021/12/16 15:06:47;;;;;;;57.75;33.28;;;;;;;;;;6220378;28;20061;-66
2021/12/16 15:09:48;;;;;;;60.15;33.67;;;;;;;;;;6245769;28;20061;-65
2021/12/16 15:13:01;;;;;;;55.17;33.40;;;;;;;;;;6228601;28;20481;-66
2021/12/16 15:16:19;;;;;;;62.47;33.15;;;;;;;;;;6218497;28;20040;-65
2021/12/16 15:39:54;;;;;;;54.08;32.30;;;;;;;;;;6202948;28;20064;-66
2021/12/16 15:42:58;;;;;;;53.70;33.47;;;;;;;;;;6213091;28;20075;-65
2021/12/16 15:46:03;;;;;;;57.58;34.60;;;;;;;;;;6227610;28;21343;-65
2021/12/16 15:49:06;;;;;;;55.58;33.85;;;;;;;;;;6239417;28;21373;-65
2021/12/16 15:52:07;;;;;;;61.28;36.67;;;;;;;;;;6225761;28;20072;-65
2021/12/16 15:55:15;;;;;;;57.75;35.22;;;;;;;;;;6231546;28;20065;-65
2021/12/16 15:58:19;;;;;;;62.72;37.08;;;;;;;;;;6232425;28;20049;-65
2021/12/16 16:01:23;;;;;;;58.97;38.65;;;;;;;;;;6223043;28;20053;-65
2021/12/16 16:04:28;;;;;;;53.63;36.58;;;;;;;;;;6234487;28;20190;-65
2021/12/16 16:07:33;;;;;;;61.85;40.60;;;;;;;;;;6222296;28;20132;-65
2021/12/16 16:10:36;;;;;;;67.97;42.85;;;;;;;;;;6227090;28;20053;-67
2021/12/16 16:13:43;;;;;;;65.25;43.13;;;;;;;;;;6236424;28;20505;-66
2021/12/16 16:16:49;;;;;;;63.83;41.92;;;;;;;;;;6218680;28;20121;-66
2021/12/16 16:19:53;;;;;;;67.75;44.30;;;;;;;;;;6229086;28;20056;-66
2021/12/16 16:22:54;;;;;;;65.70;43.90;;;;;;;;;;6221262;28;20102;-67
2021/12/16 16:25:58;;;;;;;96.32;59.25;;;;;;;;;;6230647;28;20180;-66
2021/12/16 16:29:04;;;;;;;129.77;78.93;;;;;;;;;;6241548;28;20132;-66
2021/12/16 16:32:07;;;;;;;91.25;57.45;;;;;;;;;;6218527;28;20144;-65
2021/12/16 16:35:15;;;;;;;90.72;57.28;;;;;;;;;;6232401;28;20144;-67
2021/12/16 16:38:19;;;;;;;81.57;53.70;;;;;;;;;;6240898;28;20064;-67
2021/12/16 16:41:23;;;;;;;;;;;;;;;;;;6226221;28;20191;-66
2021/12/16 16:44:26;;;;;;;82.25;52.40;;;;;;;;;;6235873;28;20344;-66
2021/12/16 16:47:33;;;;;;;77.13;48.03;;;;;;;;;;6218562;28;20511;-65
2021/12/16 16:50:38;;;;;;;83.47;52.90;;;;;;;;;;6222794;28;20363;-67
2021/12/16 16:53:54;;;;;;;125.63;76.35;;;;;;;;;;6233111;28;20048;-67
2021/12/16 16:57:02;;;;;;;85.55;54.15;;;;;;;;;;6220544;28;20045;-67
2021/12/16 17:00:10;;;;;;;87.68;55.55;;;;;;;;;;6238914;28;20076;-67
2021/12/16 17:03:15;;;;;;;81.88;51.03;;;;;;;;;;6225685;28;20509;-65
2021/12/16 17:06:16;;;;;;;76.85;51.10;;;;;;;;;;6223923;28;20492;-65
2021/12/16 17:09:19;;;;;;;78.90;51.80;;;;;;;;;;6229811;28;20041;-65
2021/12/16 17:12:22;;;;;;;80.00;52.30;;;;;;;;;;6225198;28;20128;-65
2021/12/16 17:15:35;;;;;;;79.78;52.67;;;;;;;;;;6221377;28;20049;-65
2021/12/16 17:18:40;;;;;;;81.40;51.90;;;;;;;;;;6228041;28;20076;-65
2021/12/16 17:21:46;;;;;;;84.30;54.00;;;;;;;;;;6224432;28;20069;-65
2021/12/16 17:24:49;;;;;;;86.20;53.03;;;;;;;;;;6232085;28;20046;-65
2021/12/16 17:27:55;;;;;;;83.28;53.88;;;;;;;;;;6225658;28;20063;-65
2021/12/16 17:30:57;;;;;;;82.70;52.60;;;;;;;;;;6219897;28;20071;-65
2021/12/16 17:34:07;;;;;;;87.05;52.88;;;;;;;;;;6224068;28;20075;-65
2021/12/16 17:37:12;;;;;;;86.85;53.42;;;;;;;;;;6224746;28;20058;-65
2021/12/16 17:40:18;;;;;;;82.18;53.63;;;;;;;;;;6221446;28;20132;-65
2021/12/16 17:43:29;;;;;;;87.95;53.17;;;;;;;;;;6232530;28;20053;-65
2021/12/16 17:46:31;;;;;;;83.00;54.83;;;;;;;;;;6217802;28;20064;-65
2021/12/16 17:49:33;;;;;;;90.65;54.63;;;;;;;;;;6236484;28;20429;-65
2021/12/16 17:52:37;;;;;;;85.18;55.10;;;;;;;;;;6228578;28;20065;-65
2021/12/16 17:55:43;;;;;;;91.43;55.05;;;;;;;;;;6235567;28;20050;-65
2021/12/16 17:58:50;;;;;;;90.05;56.30;;;;;;;;;;6242075;28;20075;-65
2021/12/16 18:01:52;;;;;;;88.43;56.08;;;;;;;;;;6219503;28;20046;-65
2021/12/16 18:04:56;;;;;;;93.55;55.80;;;;;;;;;;6237098;28;20207;-65
2021/12/16 18:07:58;;;;;;;91.82;54.72;;;;;;;;;;6227430;28;20050;-65
2021/12/16 18:11:04;;;;;;;91.30;54.33;;;;;;;;;;6219515;28;20137;-64
2021/12/16 18:14:10;;;;;;;90.97;57.05;;;;;;;;;;6249893;28;20049;-64
2021/12/16 18:17:13;;;;;;;93.30;54.55;;;;;;;;;;6226140;28;20096;-64
2021/12/16 18:20:18;;;;;;;91.32;55.20;;;;;;;;;;6225119;28;20527;-64
2021/12/16 18:23:26;;;;;;;95.47;58.03;;;;;;;;;;6223297;28;20081;-64
2021/12/16 18:26:29;;;;;;;99.40;57.38;;;;;;;;;;6224266;28;20045;-64
2021/12/16 18:29:36;;;;;;;92.88;57.70;;;;;;;;;;6237759;28;20042;-64
2021/12/16 18:32:39;;;;;;;96.22;58.60;;;;;;;;;;6213600;28;20180;-64
2021/12/16 18:35:43;;;;;;;105.25;60.42;;;;;;;;;;6223975;28;20146;-65
2021/12/16 18:38:47;;;;;;;98.95;59.15;;;;;;;;;;6234522;28;20443;-65
2021/12/16 18:41:52;;;;;;;102.45;61.20;;;;;;;;;;6234780;28;20053;-64
2021/12/16 18:44:56;;;;;;;104.80;61.83;;;;;;;;;;6235296;28;20088;-65
2021/12/16 18:48:04;;;;;;;102.32;60.70;;;;;;;;;;6223292;28;20053;-64
2021/12/16 18:51:23;;;;;;;103.18;62.85;;;;;;;;;;6222327;28;20489;-64
2021/12/16 18:54:31;;;;;;;100.93;61.97;;;;;;;;;;6232000;28;20509;-64
2021/12/16 18:57:34;;;;;;;105.07;61.08;;;;;;;;;;6227157;28;20517;-64
2021/12/16 19:00:40;;;;;;;102.10;62.60;;;;;;;;;;6225946;28;20044;-65
2021/12/16 19:03:44;;;;;;;101.47;59.83;;;;;;;;;;6230265;28;20124;-64
2021/12/16 19:06:46;;;;;;;109.03;63.03;;;;;;;;;;6226862;28;20056;-64
2021/12/16 19:09:51;;;;;;;109.10;63.85;;;;;;;;;;6242670;28;20176;-64
2021/12/16 19:12:54;;;;;;;109.78;64.82;;;;;;;;;;6235793;28;20124;-64
2021/12/16 19:15:59;;;;;;;102.38;62.63;;;;;;;;;;6222632;28;20132;-65
2021/12/16 19:19:01;;;;;;;104.90;64.35;;;;;;;;;;6238534;28;20054;-64
2021/12/16 19:22:07;;;;;;;108.00;63.70;;;;;;;;;;6218453;28;20073;-64
2021/12/16 19:25:10;;;;;;;118.13;65.88;;;;;;;;;;6221438;28;20098;-64
2021/12/16 19:28:12;;;;;;;107.28;63.20;;;;;;;;;;6232578;28;20057;-64
2021/12/16 19:31:19;;;;;;;111.43;66.38;;;;;;;;;;6208118;28;20126;-64
2021/12/16 19:34:22;;;;;;;104.90;62.03;;;;;;;;;;6236203;28;20042;-65
2021/12/16 19:37:24;;;;;;;113.93;65.18;;;;;;;;;;6225266;28;20110;-64
2021/12/16 19:40:30;;;;;;;111.38;65.55;;;;;;;;;;6229657;28;21041;-65
2021/12/16 19:43:32;;;;;;;108.47;63.60;;;;;;;;;;6238093;28;20049;-64
2021/12/16 19:46:35;;;;;;;106.07;61.50;;;;;;;;;;6214658;28;20200;-65
2021/12/16 19:49:37;;;;;;;108.07;62.17;;;;;;;;;;6230573;28;20049;-64
2021/12/16 19:52:39;;;;;;;105.95;62.90;;;;;;;;;;6230997;28;20057;-65
2021/12/16 19:55:40;;;;;;;109.85;62.00;;;;;;;;;;6226155;28;20144;-64
2021/12/16 19:58:42;;;;;;;101.60;58.58;;;;;;;;;;6239441;28;20111;-64
2021/12/16 20:01:45;;;;;;;99.57;59.35;;;;;;;;;;6225243;28;20049;-65
2021/12/16 20:04:47;;;;;;;101.28;57.92;;;;;;;;;;6234561;28;20521;-65
2021/12/16 20:07:51;;;;;;;97.68;54.65;;;;;;;;;;6223106;28;20050;-65
2021/12/16 20:10:56;;;;;;;84.72;52.03;;;;;;;;;;6224932;28;20163;-65
2021/12/16 20:13:58;;;;;;;93.00;54.60;;;;;;;;;;6237574;28;20403;-65
2021/12/16 20:17:05;;;;;;;86.45;52.38;;;;;;;;;;6214775;28;20045;-65
2021/12/16 20:20:11;;;;;;;86.28;50.88;;;;;;;;;;6228718;28;20045;-65
2021/12/16 20:23:13;;;;;;;81.15;49.60;;;;;;;;;;6226165;28;20179;-65
2021/12/16 20:26:18;;;;;;;80.20;49.42;;;;;;;;;;6217384;28;20080;-65
2021/12/16 20:29:22;;;;;;;80.65;47.10;;;;;;;;;;6226112;28;20072;-65
2021/12/16 20:32:28;;;;;;;77.47;48.42;;;;;;;;;;6209298;28;20897;-65
2021/12/16 20:35:34;;;;;;;79.75;47.88;;;;;;;;;;6218584;28;20037;-65
2021/12/16 20:38:40;;;;;;;76.25;46.55;;;;;;;;;;6228068;28;20042;-65